sensor_id;sensor_type;location;lat;lon;timestamp;P1;durP1;ratioP1;P2;durP2;ratioP2
58384;SDS011;44185;47.844;8.966;2023-02-28T00:01:37;4.15;;;2.83;;
58384;SDS011;44185;47.844;8.966;2023-02-28T00:04:03;5.28;;;2.90;;
58384;SDS011;44185;47.844;8.966;2023-02-28T00:06:28;5.70;;;2.97;;
58384;SDS011;44185;47.844;8.966;2023-02-28T00:08:54;5.17;;;3.73;;
58384;SDS011;44185;47.844;8.966;2023-02-28T00:11:19;6.78;;;4.47;;
58384;SDS011;44185;47.844;8.966;2023-02-28T00:13:46;5.30;;;3.33;;
58384;SDS011;44185;47.844;8.966;2023-02-28T00:16:14;9.43;;;4.73;;
58384;SDS011;44185;47.844;8.966;2023-02-28T00:18:42;4.50;;;3.28;;
58384;SDS011;44185;47.844;8.966;2023-02-28T00:21:08;6.77;;;3.43;;
58384;SDS011;44185;47.844;8.966;2023-02-28T00:23:34;5.20;;;3.08;;
58384;SDS011;44185;47.844;8.966;2023-02-28T00:26:00;4.78;;;3.00;;
58384;SDS011;44185;47.844;8.966;2023-02-28T00:28:25;9.30;;;4.13;;
58384;SDS011;44185;47.844;8.966;2023-02-28T00:30:51;7.38;;;3.90;;
58384;SDS011;44185;47.844;8.966;2023-02-28T00:33:18;7.55;;;3.97;;
58384;SDS011;44185;47.844;8.966;2023-02-28T00:35:43;4.57;;;3.87;;
58384;SDS011;44185;47.844;8.966;2023-02-28T00:38:09;5.67;;;3.47;;
58384;SDS011;44185;47.844;8.966;2023-02-28T00:40:34;5.87;;;3.60;;
58384;SDS011;44185;47.844;8.966;2023-02-28T00:43:00;2.80;;;2.50;;
58384;SDS011;44185;47.844;8.966;2023-02-28T00:45:25;6.13;;;3.33;;
58384;SDS011;44185;47.844;8.966;2023-02-28T00:47:51;7.87;;;3.73;;
58384;SDS011;44185;47.844;8.966;2023-02-28T00:50:18;5.00;;;3.00;;
58384;SDS011;44185;47.844;8.966;2023-02-28T00:52:44;5.60;;;3.23;;
58384;SDS011;44185;47.844;8.966;2023-02-28T00:55:09;5.77;;;4.07;;
58384;SDS011;44185;47.844;8.966;2023-02-28T00:57:35;5.50;;;3.73;;
58384;SDS011;44185;47.844;8.966;2023-02-28T01:00:00;8.43;;;3.70;;
58384;SDS011;44185;47.844;8.966;2023-02-28T01:02:26;6.53;;;3.17;;
58384;SDS011;44185;47.844;8.966;2023-02-28T01:04:51;5.40;;;3.33;;
58384;SDS011;44185;47.844;8.966;2023-02-28T01:07:18;5.27;;;3.63;;
58384;SDS011;44185;47.844;8.966;2023-02-28T01:09:44;5.23;;;2.70;;
58384;SDS011;44185;47.844;8.966;2023-02-28T01:12:09;5.80;;;3.70;;
58384;SDS011;44185;47.844;8.966;2023-02-28T01:14:35;4.30;;;3.23;;
58384;SDS011;44185;47.844;8.966;2023-02-28T01:17:00;6.32;;;3.80;;
58384;SDS011;44185;47.844;8.966;2023-02-28T01:19:26;5.27;;;3.47;;
58384;SDS011;44185;47.844;8.966;2023-02-28T01:21:51;4.95;;;3.30;;
58384;SDS011;44185;47.844;8.966;2023-02-28T01:24:18;7.47;;;4.53;;
58384;SDS011;44185;47.844;8.966;2023-02-28T01:26:43;4.27;;;2.97;;
58384;SDS011;44185;47.844;8.966;2023-02-28T01:29:09;3.80;;;3.30;;
58384;SDS011;44185;47.844;8.966;2023-02-28T01:31:35;4.65;;;2.83;;
58384;SDS011;44185;47.844;8.966;2023-02-28T01:34:00;3.30;;;3.00;;
58384;SDS011;44185;47.844;8.966;2023-02-28T01:36:26;4.50;;;2.92;;
58384;SDS011;44185;47.844;8.966;2023-02-28T01:38:51;3.38;;;3.10;;
58384;SDS011;44185;47.844;8.966;2023-02-28T01:41:19;3.60;;;2.80;;
58384;SDS011;44185;47.844;8.966;2023-02-28T01:43:57;5.13;;;2.85;;
58384;SDS011;44185;47.844;8.966;2023-02-28T01:46:24;3.70;;;3.27;;
58384;SDS011;44185;47.844;8.966;2023-02-28T01:48:51;3.43;;;3.00;;
58384;SDS011;44185;47.844;8.966;2023-02-28T01:51:20;6.70;;;3.55;;
58384;SDS011;44185;47.844;8.966;2023-02-28T01:53:51;10.50;;;3.38;;
58384;SDS011;44185;47.844;8.966;2023-02-28T01:56:22;2.65;;;2.03;;
58384;SDS011;44185;47.844;8.966;2023-02-28T01:58:52;5.22;;;3.33;;
58384;SDS011;44185;47.844;8.966;2023-02-28T02:01:19;4.47;;;3.17;;
58384;SDS011;44185;47.844;8.966;2023-02-28T02:03:46;3.65;;;2.45;;
58384;SDS011;44185;47.844;8.966;2023-02-28T02:06:12;3.30;;;2.70;;
58384;SDS011;44185;47.844;8.966;2023-02-28T02:08:38;5.65;;;3.10;;
58384;SDS011;44185;47.844;8.966;2023-02-28T02:11:03;5.90;;;3.70;;
58384;SDS011;44185;47.844;8.966;2023-02-28T02:13:42;3.87;;;3.50;;
58384;SDS011;44185;47.844;8.966;2023-02-28T02:16:22;3.83;;;2.83;;
58384;SDS011;44185;47.844;8.966;2023-02-28T02:19:00;9.40;;;3.65;;
58384;SDS011;44185;47.844;8.966;2023-02-28T02:24:59;4.47;;;3.37;;
58384;SDS011;44185;47.844;8.966;2023-02-28T02:27:45;2.60;;;2.40;;
58384;SDS011;44185;47.844;8.966;2023-02-28T02:33:29;4.53;;;2.77;;
58384;SDS011;44185;47.844;8.966;2023-02-28T02:36:19;6.30;;;3.33;;
58384;SDS011;44185;47.844;8.966;2023-02-28T02:38:49;4.13;;;3.00;;
58384;SDS011;44185;47.844;8.966;2023-02-28T02:41:18;2.57;;;1.67;;
58384;SDS011;44185;47.844;8.966;2023-02-28T02:43:50;4.27;;;2.73;;
58384;SDS011;44185;47.844;8.966;2023-02-28T02:46:19;5.28;;;3.03;;
58384;SDS011;44185;47.844;8.966;2023-02-28T02:48:46;2.67;;;2.47;;
58384;SDS011;44185;47.844;8.966;2023-02-28T02:51:13;6.47;;;3.70;;
58384;SDS011;44185;47.844;8.966;2023-02-28T02:53:44;4.00;;;2.27;;
58384;SDS011;44185;47.844;8.966;2023-02-28T02:56:14;5.77;;;3.97;;
58384;SDS011;44185;47.844;8.966;2023-02-28T02:58:43;2.93;;;2.53;;
58384;SDS011;44185;47.844;8.966;2023-02-28T03:01:10;3.03;;;2.63;;
58384;SDS011;44185;47.844;8.966;2023-02-28T03:03:40;3.78;;;3.30;;
58384;SDS011;44185;47.844;8.966;2023-02-28T03:06:06;6.53;;;3.47;;
58384;SDS011;44185;47.844;8.966;2023-02-28T03:08:33;5.60;;;2.50;;
58384;SDS011;44185;47.844;8.966;2023-02-28T03:11:02;3.20;;;2.72;;
58384;SDS011;44185;47.844;8.966;2023-02-28T03:13:45;5.53;;;3.75;;
58384;SDS011;44185;47.844;8.966;2023-02-28T03:16:27;3.78;;;3.00;;
58384;SDS011;44185;47.844;8.966;2023-02-28T03:19:01;3.45;;;2.67;;
58384;SDS011;44185;47.844;8.966;2023-02-28T03:21:36;4.03;;;2.83;;
58384;SDS011;44185;47.844;8.966;2023-02-28T03:24:06;4.20;;;2.55;;
58384;SDS011;44185;47.844;8.966;2023-02-28T03:26:38;4.27;;;2.50;;
58384;SDS011;44185;47.844;8.966;2023-02-28T03:29:08;3.45;;;3.03;;
58384;SDS011;44185;47.844;8.966;2023-02-28T03:31:41;3.83;;;2.63;;
58384;SDS011;44185;47.844;8.966;2023-02-28T03:34:12;5.22;;;4.38;;
58384;SDS011;44185;47.844;8.966;2023-02-28T03:36:43;4.30;;;2.97;;
58384;SDS011;44185;47.844;8.966;2023-02-28T03:39:14;3.42;;;3.10;;
58384;SDS011;44185;47.844;8.966;2023-02-28T03:41:44;4.40;;;2.80;;
58384;SDS011;44185;47.844;8.966;2023-02-28T03:44:13;4.88;;;2.78;;
58384;SDS011;44185;47.844;8.966;2023-02-28T03:46:44;4.60;;;2.77;;
58384;SDS011;44185;47.844;8.966;2023-02-28T03:49:14;3.27;;;2.93;;
58384;SDS011;44185;47.844;8.966;2023-02-28T03:51:43;2.70;;;2.08;;
58384;SDS011;44185;47.844;8.966;2023-02-28T03:54:13;4.13;;;2.63;;
58384;SDS011;44185;47.844;8.966;2023-02-28T03:56:45;4.70;;;3.10;;
58384;SDS011;44185;47.844;8.966;2023-02-28T03:59:17;6.87;;;3.83;;
58384;SDS011;44185;47.844;8.966;2023-02-28T04:01:47;2.67;;;2.47;;
58384;SDS011;44185;47.844;8.966;2023-02-28T04:04:14;6.53;;;3.03;;
58384;SDS011;44185;47.844;8.966;2023-02-28T04:06:41;6.67;;;3.63;;
58384;SDS011;44185;47.844;8.966;2023-02-28T04:09:08;2.90;;;2.42;;
58384;SDS011;44185;47.844;8.966;2023-02-28T04:11:36;3.17;;;2.17;;
58384;SDS011;44185;47.844;8.966;2023-02-28T04:14:04;3.20;;;2.27;;
58384;SDS011;44185;47.844;8.966;2023-02-28T04:16:31;5.17;;;3.37;;
58384;SDS011;44185;47.844;8.966;2023-02-28T04:18:57;5.17;;;3.03;;
58384;SDS011;44185;47.844;8.966;2023-02-28T04:21:23;8.53;;;4.20;;
58384;SDS011;44185;47.844;8.966;2023-02-28T04:23:48;6.50;;;3.40;;
58384;SDS011;44185;47.844;8.966;2023-02-28T04:26:14;3.90;;;2.37;;
58384;SDS011;44185;47.844;8.966;2023-02-28T04:28:39;4.10;;;3.03;;
58384;SDS011;44185;47.844;8.966;2023-02-28T04:31:06;4.77;;;3.53;;
58384;SDS011;44185;47.844;8.966;2023-02-28T04:33:32;3.40;;;2.83;;
58384;SDS011;44185;47.844;8.966;2023-02-28T04:35:58;4.50;;;2.80;;
58384;SDS011;44185;47.844;8.966;2023-02-28T04:38:24;2.87;;;2.63;;
58384;SDS011;44185;47.844;8.966;2023-02-28T04:40:49;4.73;;;2.93;;
58384;SDS011;44185;47.844;8.966;2023-02-28T04:43:14;5.83;;;3.73;;
58384;SDS011;44185;47.844;8.966;2023-02-28T04:45:40;4.33;;;3.00;;
58384;SDS011;44185;47.844;8.966;2023-02-28T04:48:07;8.60;;;2.72;;
58384;SDS011;44185;47.844;8.966;2023-02-28T04:50:32;3.93;;;2.73;;
58384;SDS011;44185;47.844;8.966;2023-02-28T04:52:58;5.97;;;3.53;;
58384;SDS011;44185;47.844;8.966;2023-02-28T04:55:23;4.93;;;2.93;;
58384;SDS011;44185;47.844;8.966;2023-02-28T04:57:49;4.33;;;2.37;;
58384;SDS011;44185;47.844;8.966;2023-02-28T05:00:14;5.67;;;3.10;;
58384;SDS011;44185;47.844;8.966;2023-02-28T05:02:40;5.27;;;3.23;;
58384;SDS011;44185;47.844;8.966;2023-02-28T05:05:07;3.23;;;2.93;;
58384;SDS011;44185;47.844;8.966;2023-02-28T05:07:33;4.22;;;2.42;;
58384;SDS011;44185;47.844;8.966;2023-02-28T05:09:58;3.05;;;2.75;;
58384;SDS011;44185;47.844;8.966;2023-02-28T05:12:23;5.30;;;3.07;;
58384;SDS011;44185;47.844;8.966;2023-02-28T05:14:49;5.20;;;3.50;;
58384;SDS011;44185;47.844;8.966;2023-02-28T05:17:14;5.13;;;3.53;;
58384;SDS011;44185;47.844;8.966;2023-02-28T05:19:40;4.27;;;2.63;;
58384;SDS011;44185;47.844;8.966;2023-02-28T05:22:11;3.03;;;2.78;;
58384;SDS011;44185;47.844;8.966;2023-02-28T05:24:38;4.55;;;2.80;;
58384;SDS011;44185;47.844;8.966;2023-02-28T05:27:04;2.67;;;2.20;;
58384;SDS011;44185;47.844;8.966;2023-02-28T05:29:29;9.17;;;3.43;;
58384;SDS011;44185;47.844;8.966;2023-02-28T05:31:54;5.10;;;2.97;;
58384;SDS011;44185;47.844;8.966;2023-02-28T05:34:20;4.90;;;3.00;;
58384;SDS011;44185;47.844;8.966;2023-02-28T05:36:45;4.15;;;2.78;;
58384;SDS011;44185;47.844;8.966;2023-02-28T05:39:12;7.88;;;3.97;;
58384;SDS011;44185;47.844;8.966;2023-02-28T05:41:40;4.60;;;2.90;;
58384;SDS011;44185;47.844;8.966;2023-02-28T05:44:07;3.23;;;2.43;;
58384;SDS011;44185;47.844;8.966;2023-02-28T05:46:32;13.93;;;3.40;;
58384;SDS011;44185;47.844;8.966;2023-02-28T05:48:58;3.40;;;2.27;;
58384;SDS011;44185;47.844;8.966;2023-02-28T05:51:23;7.07;;;2.88;;
58384;SDS011;44185;47.844;8.966;2023-02-28T05:53:49;9.82;;;4.38;;
58384;SDS011;44185;47.844;8.966;2023-02-28T05:56:16;10.37;;;4.67;;
58384;SDS011;44185;47.844;8.966;2023-02-28T05:58:41;4.72;;;3.50;;
58384;SDS011;44185;47.844;8.966;2023-02-28T06:01:19;8.15;;;3.75;;
58384;SDS011;44185;47.844;8.966;2023-02-28T06:03:47;7.55;;;3.30;;
58384;SDS011;44185;47.844;8.966;2023-02-28T06:06:12;10.40;;;4.43;;
58384;SDS011;44185;47.844;8.966;2023-02-28T06:08:38;8.43;;;4.47;;
58384;SDS011;44185;47.844;8.966;2023-02-28T06:11:03;4.13;;;3.70;;
58384;SDS011;44185;47.844;8.966;2023-02-28T06:13:30;3.03;;;2.03;;
58384;SDS011;44185;47.844;8.966;2023-02-28T06:15:56;6.07;;;3.33;;
58384;SDS011;44185;47.844;8.966;2023-02-28T06:18:21;4.80;;;2.78;;
58384;SDS011;44185;47.844;8.966;2023-02-28T06:20:51;10.73;;;4.75;;
58384;SDS011;44185;47.844;8.966;2023-02-28T06:23:17;7.70;;;4.18;;
58384;SDS011;44185;47.844;8.966;2023-02-28T06:25:44;6.97;;;4.37;;
58384;SDS011;44185;47.844;8.966;2023-02-28T06:28:10;6.55;;;3.90;;
58384;SDS011;44185;47.844;8.966;2023-02-28T06:30:37;7.17;;;3.87;;
58384;SDS011;44185;47.844;8.966;2023-02-28T06:33:03;11.23;;;4.38;;
58384;SDS011;44185;47.844;8.966;2023-02-28T06:35:28;5.10;;;3.60;;
58384;SDS011;44185;47.844;8.966;2023-02-28T06:37:54;7.38;;;3.83;;
58384;SDS011;44185;47.844;8.966;2023-02-28T06:40:19;4.78;;;3.38;;
58384;SDS011;44185;47.844;8.966;2023-02-28T06:42:45;9.35;;;4.22;;
58384;SDS011;44185;47.844;8.966;2023-02-28T06:45:11;7.06;;;3.66;;
58384;SDS011;44185;47.844;8.966;2023-02-28T06:47:38;4.97;;;2.87;;
58384;SDS011;44185;47.844;8.966;2023-02-28T06:50:05;4.88;;;3.50;;
58384;SDS011;44185;47.844;8.966;2023-02-28T06:52:32;7.90;;;4.47;;
58384;SDS011;44185;47.844;8.966;2023-02-28T06:54:58;6.67;;;3.50;;
58384;SDS011;44185;47.844;8.966;2023-02-28T06:57:24;4.00;;;3.10;;
58384;SDS011;44185;47.844;8.966;2023-02-28T06:59:49;3.88;;;3.30;;
58384;SDS011;44185;47.844;8.966;2023-02-28T07:02:15;8.07;;;3.87;;
58384;SDS011;44185;47.844;8.966;2023-02-28T07:04:41;9.10;;;4.73;;
58384;SDS011;44185;47.844;8.966;2023-02-28T07:07:07;5.53;;;3.97;;
58384;SDS011;44185;47.844;8.966;2023-02-28T07:09:32;4.87;;;3.27;;
58384;SDS011;44185;47.844;8.966;2023-02-28T07:11:58;6.90;;;3.63;;
58384;SDS011;44185;47.844;8.966;2023-02-28T07:14:23;5.90;;;3.83;;
58384;SDS011;44185;47.844;8.966;2023-02-28T07:16:49;9.77;;;4.97;;
58384;SDS011;44185;47.844;8.966;2023-02-28T07:19:14;6.90;;;3.90;;
58384;SDS011;44185;47.844;8.966;2023-02-28T07:21:41;7.43;;;3.97;;
58384;SDS011;44185;47.844;8.966;2023-02-28T07:24:06;5.03;;;2.47;;
58384;SDS011;44185;47.844;8.966;2023-02-28T07:26:32;6.57;;;3.43;;
58384;SDS011;44185;47.844;8.966;2023-02-28T07:28:57;6.63;;;3.90;;
58384;SDS011;44185;47.844;8.966;2023-02-28T07:31:23;4.87;;;3.30;;
58384;SDS011;44185;47.844;8.966;2023-02-28T07:33:48;7.20;;;3.37;;
58384;SDS011;44185;47.844;8.966;2023-02-28T07:36:14;5.57;;;3.70;;
58384;SDS011;44185;47.844;8.966;2023-02-28T07:38:43;7.07;;;3.80;;
58384;SDS011;44185;47.844;8.966;2023-02-28T07:41:09;6.77;;;4.57;;
58384;SDS011;44185;47.844;8.966;2023-02-28T07:43:35;5.87;;;3.90;;
58384;SDS011;44185;47.844;8.966;2023-02-28T07:46:02;7.63;;;4.00;;
58384;SDS011;44185;47.844;8.966;2023-02-28T07:48:28;7.90;;;4.23;;
58384;SDS011;44185;47.844;8.966;2023-02-28T07:50:54;9.07;;;4.57;;
58384;SDS011;44185;47.844;8.966;2023-02-28T07:53:20;6.47;;;3.77;;
58384;SDS011;44185;47.844;8.966;2023-02-28T07:55:46;4.37;;;3.27;;
58384;SDS011;44185;47.844;8.966;2023-02-28T07:58:12;10.38;;;3.95;;
58384;SDS011;44185;47.844;8.966;2023-02-28T08:00:38;7.97;;;4.35;;
58384;SDS011;44185;47.844;8.966;2023-02-28T08:03:03;11.18;;;4.03;;
58384;SDS011;44185;47.844;8.966;2023-02-28T08:05:28;8.17;;;4.13;;
58384;SDS011;44185;47.844;8.966;2023-02-28T08:07:54;10.38;;;4.00;;
58384;SDS011;44185;47.844;8.966;2023-02-28T08:10:19;6.85;;;4.13;;
58384;SDS011;44185;47.844;8.966;2023-02-28T08:12:46;9.93;;;4.80;;
58384;SDS011;44185;47.844;8.966;2023-02-28T08:15:12;8.57;;;5.03;;
58384;SDS011;44185;47.844;8.966;2023-02-28T08:17:38;6.68;;;3.97;;
58384;SDS011;44185;47.844;8.966;2023-02-28T08:20:03;8.20;;;4.10;;
58384;SDS011;44185;47.844;8.966;2023-02-28T08:22:29;6.40;;;3.67;;
58384;SDS011;44185;47.844;8.966;2023-02-28T08:24:55;9.30;;;4.45;;
58384;SDS011;44185;47.844;8.966;2023-02-28T08:27:20;9.10;;;4.78;;
58384;SDS011;44185;47.844;8.966;2023-02-28T08:29:47;8.40;;;4.00;;
58384;SDS011;44185;47.844;8.966;2023-02-28T08:32:13;9.52;;;4.28;;
58384;SDS011;44185;47.844;8.966;2023-02-28T08:34:38;5.20;;;3.28;;
58384;SDS011;44185;47.844;8.966;2023-02-28T08:37:04;5.88;;;3.60;;
58384;SDS011;44185;47.844;8.966;2023-02-28T08:39:29;5.93;;;3.78;;
58384;SDS011;44185;47.844;8.966;2023-02-28T08:41:55;9.90;;;6.37;;
58384;SDS011;44185;47.844;8.966;2023-02-28T08:44:20;5.20;;;3.30;;
58384;SDS011;44185;47.844;8.966;2023-02-28T08:46:47;11.65;;;5.57;;
58384;SDS011;44185;47.844;8.966;2023-02-28T08:49:12;7.70;;;4.20;;
58384;SDS011;44185;47.844;8.966;2023-02-28T08:51:38;8.93;;;4.93;;
58384;SDS011;44185;47.844;8.966;2023-02-28T08:54:03;6.40;;;4.10;;
58384;SDS011;44185;47.844;8.966;2023-02-28T08:56:29;8.93;;;4.68;;
58384;SDS011;44185;47.844;8.966;2023-02-28T08:58:55;10.25;;;4.97;;
58384;SDS011;44185;47.844;8.966;2023-02-28T09:01:22;5.70;;;3.92;;
58384;SDS011;44185;47.844;8.966;2023-02-28T09:03:51;12.35;;;5.68;;
58384;SDS011;44185;47.844;8.966;2023-02-28T09:06:18;10.93;;;5.35;;
58384;SDS011;44185;47.844;8.966;2023-02-28T09:08:44;6.22;;;4.20;;
58384;SDS011;44185;47.844;8.966;2023-02-28T09:11:10;8.15;;;4.25;;
58384;SDS011;44185;47.844;8.966;2023-02-28T09:13:36;9.95;;;5.07;;
58384;SDS011;44185;47.844;8.966;2023-02-28T09:16:02;7.22;;;3.80;;
58384;SDS011;44185;47.844;8.966;2023-02-28T09:18:30;10.23;;;5.60;;
58384;SDS011;44185;47.844;8.966;2023-02-28T09:20:57;9.65;;;4.72;;
58384;SDS011;44185;47.844;8.966;2023-02-28T09:23:22;10.50;;;5.20;;
58384;SDS011;44185;47.844;8.966;2023-02-28T09:25:50;9.38;;;5.18;;
58384;SDS011;44185;47.844;8.966;2023-02-28T09:28:17;7.97;;;3.97;;
58384;SDS011;44185;47.844;8.966;2023-02-28T09:30:43;7.78;;;4.82;;
58384;SDS011;44185;47.844;8.966;2023-02-28T09:33:10;14.60;;;7.20;;
58384;SDS011;44185;47.844;8.966;2023-02-28T09:35:36;14.38;;;6.32;;
58384;SDS011;44185;47.844;8.966;2023-02-28T09:38:04;8.15;;;4.95;;
58384;SDS011;44185;47.844;8.966;2023-02-28T09:40:30;11.67;;;5.30;;
58384;SDS011;44185;47.844;8.966;2023-02-28T09:42:56;8.13;;;4.47;;
58384;SDS011;44185;47.844;8.966;2023-02-28T09:45:26;11.90;;;5.68;;
58384;SDS011;44185;47.844;8.966;2023-02-28T09:47:56;9.13;;;5.00;;
58384;SDS011;44185;47.844;8.966;2023-02-28T09:50:29;10.50;;;5.65;;
58384;SDS011;44185;47.844;8.966;2023-02-28T09:52:58;9.57;;;5.30;;
58384;SDS011;44185;47.844;8.966;2023-02-28T09:55:29;9.10;;;4.72;;
58384;SDS011;44185;47.844;8.966;2023-02-28T09:57:58;8.82;;;5.40;;
58384;SDS011;44185;47.844;8.966;2023-02-28T10:00:27;8.93;;;4.43;;
58384;SDS011;44185;47.844;8.966;2023-02-28T10:03:00;12.98;;;6.38;;
58384;SDS011;44185;47.844;8.966;2023-02-28T10:05:51;8.98;;;4.68;;
58384;SDS011;44185;47.844;8.966;2023-02-28T10:08:19;12.37;;;4.77;;
58384;SDS011;44185;47.844;8.966;2023-02-28T10:10:51;10.80;;;5.65;;
58384;SDS011;44185;47.844;8.966;2023-02-28T10:13:22;12.20;;;6.95;;
58384;SDS011;44185;47.844;8.966;2023-02-28T10:15:52;15.68;;;6.95;;
58384;SDS011;44185;47.844;8.966;2023-02-28T10:18:22;11.07;;;6.22;;
58384;SDS011;44185;47.844;8.966;2023-02-28T10:20:49;10.17;;;5.23;;
58384;SDS011;44185;47.844;8.966;2023-02-28T10:23:17;9.90;;;5.03;;
58384;SDS011;44185;47.844;8.966;2023-02-28T10:25:47;11.55;;;5.65;;
58384;SDS011;44185;47.844;8.966;2023-02-28T10:28:19;10.43;;;5.35;;
58384;SDS011;44185;47.844;8.966;2023-02-28T10:30:46;11.55;;;5.70;;
58384;SDS011;44185;47.844;8.966;2023-02-28T10:33:18;17.05;;;7.40;;
58384;SDS011;44185;47.844;8.966;2023-02-28T10:35:46;6.32;;;3.85;;
58384;SDS011;44185;47.844;8.966;2023-02-28T10:38:14;7.95;;;4.32;;
58384;SDS011;44185;47.844;8.966;2023-02-28T10:40:42;8.07;;;4.18;;
58384;SDS011;44185;47.844;8.966;2023-02-28T10:43:17;12.68;;;5.53;;
58384;SDS011;44185;47.844;8.966;2023-02-28T10:45:52;10.75;;;5.47;;
58384;SDS011;44185;47.844;8.966;2023-02-28T10:48:29;8.07;;;4.47;;
58384;SDS011;44185;47.844;8.966;2023-02-28T10:50:59;12.35;;;6.53;;
58384;SDS011;44185;47.844;8.966;2023-02-28T10:53:30;10.20;;;5.50;;
58384;SDS011;44185;47.844;8.966;2023-02-28T10:56:00;10.52;;;6.10;;
58384;SDS011;44185;47.844;8.966;2023-02-28T10:58:29;10.27;;;5.43;;
58384;SDS011;44185;47.844;8.966;2023-02-28T11:00:57;12.97;;;6.00;;
58384;SDS011;44185;47.844;8.966;2023-02-28T11:03:27;11.05;;;5.32;;
58384;SDS011;44185;47.844;8.966;2023-02-28T11:05:56;12.10;;;4.57;;
58384;SDS011;44185;47.844;8.966;2023-02-28T11:08:22;10.70;;;5.70;;
58384;SDS011;44185;47.844;8.966;2023-02-28T11:10:48;11.68;;;6.07;;
58384;SDS011;44185;47.844;8.966;2023-02-28T11:13:20;13.10;;;6.43;;
58384;SDS011;44185;47.844;8.966;2023-02-28T11:15:52;5.38;;;2.92;;
58384;SDS011;44185;47.844;8.966;2023-02-28T11:18:20;12.27;;;6.00;;
58384;SDS011;44185;47.844;8.966;2023-02-28T11:20:50;8.70;;;4.43;;
58384;SDS011;44185;47.844;8.966;2023-02-28T11:23:17;13.30;;;4.88;;
58384;SDS011;44185;47.844;8.966;2023-02-28T11:25:46;11.50;;;5.50;;
58384;SDS011;44185;47.844;8.966;2023-02-28T11:28:25;13.00;;;6.75;;
58384;SDS011;44185;47.844;8.966;2023-02-28T11:31:04;9.85;;;5.43;;
58384;SDS011;44185;47.844;8.966;2023-02-28T11:33:40;7.60;;;3.47;;
58384;SDS011;44185;47.844;8.966;2023-02-28T11:36:09;8.00;;;3.90;;
58384;SDS011;44185;47.844;8.966;2023-02-28T11:38:37;10.10;;;3.88;;
58384;SDS011;44185;47.844;8.966;2023-02-28T11:41:06;16.08;;;7.32;;
58384;SDS011;44185;47.844;8.966;2023-02-28T11:43:46;9.57;;;5.75;;
58384;SDS011;44185;47.844;8.966;2023-02-28T11:46:28;15.68;;;6.55;;
58384;SDS011;44185;47.844;8.966;2023-02-28T11:49:01;15.52;;;7.43;;
58384;SDS011;44185;47.844;8.966;2023-02-28T11:51:40;9.35;;;5.40;;
58384;SDS011;44185;47.844;8.966;2023-02-28T11:54:20;8.80;;;5.32;;
58384;SDS011;44185;47.844;8.966;2023-02-28T11:56:54;12.27;;;7.20;;
58384;SDS011;44185;47.844;8.966;2023-02-28T11:59:28;14.52;;;6.80;;
58384;SDS011;44185;47.844;8.966;2023-02-28T12:02:13;14.25;;;6.05;;
58384;SDS011;44185;47.844;8.966;2023-02-28T12:04:49;8.38;;;4.90;;
58384;SDS011;44185;47.844;8.966;2023-02-28T12:07:28;11.60;;;5.87;;
58384;SDS011;44185;47.844;8.966;2023-02-28T12:10:02;14.63;;;5.47;;
58384;SDS011;44185;47.844;8.966;2023-02-28T12:12:38;11.55;;;5.95;;
58384;SDS011;44185;47.844;8.966;2023-02-28T12:15:16;14.63;;;6.88;;
58384;SDS011;44185;47.844;8.966;2023-02-28T12:18:05;10.18;;;6.07;;
58384;SDS011;44185;47.844;8.966;2023-02-28T12:20:45;15.68;;;7.85;;
58384;SDS011;44185;47.844;8.966;2023-02-28T12:23:19;12.70;;;7.07;;
58384;SDS011;44185;47.844;8.966;2023-02-28T12:26:07;15.23;;;7.95;;
58384;SDS011;44185;47.844;8.966;2023-02-28T12:28:38;13.57;;;6.18;;
58384;SDS011;44185;47.844;8.966;2023-02-28T12:33:38;8.88;;;4.90;;
58384;SDS011;44185;47.844;8.966;2023-02-28T12:36:09;12.57;;;6.28;;
58384;SDS011;44185;47.844;8.966;2023-02-28T12:38:37;7.82;;;3.97;;
58384;SDS011;44185;47.844;8.966;2023-02-28T12:41:09;13.18;;;7.05;;
58384;SDS011;44185;47.844;8.966;2023-02-28T12:43:40;12.77;;;6.45;;
58384;SDS011;44185;47.844;8.966;2023-02-28T12:46:10;13.73;;;6.32;;
58384;SDS011;44185;47.844;8.966;2023-02-28T12:51:08;9.40;;;5.43;;
58384;SDS011;44185;47.844;8.966;2023-02-28T12:53:37;10.52;;;6.03;;
58384;SDS011;44185;47.844;8.966;2023-02-28T12:56:13;13.00;;;6.93;;
58384;SDS011;44185;47.844;8.966;2023-02-28T12:58:45;16.58;;;7.30;;
58384;SDS011;44185;47.844;8.966;2023-02-28T13:01:26;7.35;;;4.93;;
58384;SDS011;44185;47.844;8.966;2023-02-28T13:04:27;10.35;;;5.78;;
58384;SDS011;44185;47.844;8.966;2023-02-28T13:07:21;13.32;;;6.07;;
58384;SDS011;44185;47.844;8.966;2023-02-28T13:10:08;11.73;;;5.85;;
58384;SDS011;44185;47.844;8.966;2023-02-28T13:12:35;10.63;;;5.97;;
58384;SDS011;44185;47.844;8.966;2023-02-28T13:15:03;11.80;;;6.75;;
58384;SDS011;44185;47.844;8.966;2023-02-28T13:17:32;9.40;;;5.55;;
58384;SDS011;44185;47.844;8.966;2023-02-28T13:19:59;11.65;;;6.72;;
58384;SDS011;44185;47.844;8.966;2023-02-28T13:22:36;11.90;;;6.40;;
58384;SDS011;44185;47.844;8.966;2023-02-28T13:25:13;10.70;;;5.97;;
58384;SDS011;44185;47.844;8.966;2023-02-28T13:31:15;14.60;;;5.78;;
58384;SDS011;44185;47.844;8.966;2023-02-28T13:36:38;13.77;;;6.20;;
58384;SDS011;44185;47.844;8.966;2023-02-28T13:39:20;12.00;;;6.53;;
58384;SDS011;44185;47.844;8.966;2023-02-28T13:42:33;11.70;;;5.90;;
58384;SDS011;44185;47.844;8.966;2023-02-28T13:47:51;14.23;;;6.72;;
58384;SDS011;44185;47.844;8.966;2023-02-28T13:50:29;11.68;;;6.85;;
58384;SDS011;44185;47.844;8.966;2023-02-28T13:53:02;13.93;;;6.60;;
58384;SDS011;44185;47.844;8.966;2023-02-28T13:55:48;14.13;;;7.32;;
58384;SDS011;44185;47.844;8.966;2023-02-28T13:58:24;6.75;;;5.10;;
58384;SDS011;44185;47.844;8.966;2023-02-28T14:01:08;11.90;;;6.32;;
58384;SDS011;44185;47.844;8.966;2023-02-28T14:03:44;15.57;;;7.55;;
58384;SDS011;44185;47.844;8.966;2023-02-28T14:06:22;13.83;;;7.27;;
58384;SDS011;44185;47.844;8.966;2023-02-28T14:08:53;12.77;;;7.28;;
58384;SDS011;44185;47.844;8.966;2023-02-28T14:11:28;13.75;;;6.32;;
58384;SDS011;44185;47.844;8.966;2023-02-28T14:13:55;14.20;;;7.10;;
58384;SDS011;44185;47.844;8.966;2023-02-28T14:16:21;10.88;;;6.07;;
58384;SDS011;44185;47.844;8.966;2023-02-28T14:18:49;14.40;;;6.30;;
58384;SDS011;44185;47.844;8.966;2023-02-28T14:21:21;13.23;;;6.50;;
58384;SDS011;44185;47.844;8.966;2023-02-28T14:24:02;11.23;;;5.47;;
58384;SDS011;44185;47.844;8.966;2023-02-28T14:27:05;12.88;;;6.53;;
58384;SDS011;44185;47.844;8.966;2023-02-28T14:29:54;11.73;;;5.97;;
58384;SDS011;44185;47.844;8.966;2023-02-28T14:32:33;11.00;;;6.28;;
58384;SDS011;44185;47.844;8.966;2023-02-28T14:35:11;11.27;;;6.28;;
58384;SDS011;44185;47.844;8.966;2023-02-28T14:37:50;13.73;;;6.82;;
58384;SDS011;44185;47.844;8.966;2023-02-28T14:40:19;14.57;;;8.32;;
58384;SDS011;44185;47.844;8.966;2023-02-28T14:42:56;15.55;;;7.95;;
58384;SDS011;44185;47.844;8.966;2023-02-28T14:45:22;10.00;;;6.07;;
58384;SDS011;44185;47.844;8.966;2023-02-28T14:47:48;11.70;;;5.78;;
58384;SDS011;44185;47.844;8.966;2023-02-28T14:50:18;13.98;;;7.13;;
58384;SDS011;44185;47.844;8.966;2023-02-28T14:52:45;14.20;;;7.13;;
58384;SDS011;44185;47.844;8.966;2023-02-28T14:55:12;9.32;;;5.00;;
58384;SDS011;44185;47.844;8.966;2023-02-28T15:00:22;13.45;;;6.15;;
58384;SDS011;44185;47.844;8.966;2023-02-28T15:02:49;10.23;;;5.60;;
58384;SDS011;44185;47.844;8.966;2023-02-28T15:05:23;11.50;;;5.22;;
58384;SDS011;44185;47.844;8.966;2023-02-28T15:08:09;13.98;;;7.50;;
58384;SDS011;44185;47.844;8.966;2023-02-28T15:10:37;11.88;;;5.80;;
58384;SDS011;44185;47.844;8.966;2023-02-28T15:13:04;10.70;;;6.43;;
58384;SDS011;44185;47.844;8.966;2023-02-28T15:15:41;14.98;;;7.10;;
58384;SDS011;44185;47.844;8.966;2023-02-28T15:18:10;13.88;;;7.30;;
58384;SDS011;44185;47.844;8.966;2023-02-28T15:20:46;16.08;;;7.47;;